sensor_id;sensor_type;location;lat;lon;timestamp;pressure;altitude;pressure_sealevel;temperature;humidity
43125;BME280;49182;50.788;7.318;2022-10-18T00:02:10;101827.00;;;16.34;100.00
43125;BME280;49182;50.788;7.318;2022-10-18T00:04:36;101824.75;;;16.29;100.00
43125;BME280;49182;50.788;7.318;2022-10-18T00:07:03;101820.25;;;16.20;100.00
43125;BME280;49182;50.788;7.318;2022-10-18T00:09:30;101827.69;;;16.26;100.00
43125;BME280;49182;50.788;7.318;2022-10-18T00:11:56;101820.69;;;16.25;100.00
43125;BME280;49182;50.788;7.318;2022-10-18T00:14:23;101821.25;;;16.19;100.00
43125;BME280;49182;50.788;7.318;2022-10-18T00:16:49;101821.66;;;16.24;100.00
43125;BME280;49182;50.788;7.318;2022-10-18T00:19:17;101827.69;;;16.26;100.00
43125;BME280;49182;50.788;7.318;2022-10-18T00:21:44;101819.84;;;16.25;100.00
43125;BME280;49182;50.788;7.318;2022-10-18T00:24:15;101801.34;;;16.13;100.00
43125;BME280;49182;50.788;7.318;2022-10-18T00:26:42;101811.72;;;16.26;100.00
43125;BME280;49182;50.788;7.318;2022-10-18T00:29:12;101810.00;;;16.25;100.00
43125;BME280;49182;50.788;7.318;2022-10-18T00:31:39;101811.16;;;16.23;100.00
43125;BME280;49182;50.788;7.318;2022-10-18T00:34:08;101813.13;;;16.21;100.00
43125;BME280;49182;50.788;7.318;2022-10-18T00:36:36;101812.28;;;16.20;100.00
43125;BME280;49182;50.788;7.318;2022-10-18T00:39:04;101809.59;;;16.20;100.00
43125;BME280;49182;50.788;7.318;2022-10-18T00:41:32;101791.09;;;16.09;100.00
43125;BME280;49182;50.788;7.318;2022-10-18T00:44:02;101807.78;;;16.21;100.00
43125;BME280;49182;50.788;7.318;2022-10-18T00:46:30;101802.16;;;16.24;100.00
43125;BME280;49182;50.788;7.318;2022-10-18T00:48:59;101792.22;;;16.26;100.00
43125;BME280;49182;50.788;7.318;2022-10-18T00:51:30;101802.88;;;16.26;100.00
43125;BME280;49182;50.788;7.318;2022-10-18T00:53:59;101795.31;;;16.21;100.00
43125;BME280;49182;50.788;7.318;2022-10-18T00:56:25;101794.72;;;16.17;100.00
43125;BME280;49182;50.788;7.318;2022-10-18T00:58:52;101799.38;;;16.15;100.00
43125;BME280;49182;50.788;7.318;2022-10-18T01:01:19;101795.16;;;16.13;100.00
43125;BME280;49182;50.788;7.318;2022-10-18T01:03:53;101789.97;;;16.11;100.00
43125;BME280;49182;50.788;7.318;2022-10-18T01:06:19;101787.31;;;16.11;100.00
43125;BME280;49182;50.788;7.318;2022-10-18T01:08:56;101790.81;;;16.12;100.00
43125;BME280;49182;50.788;7.318;2022-10-18T01:11:36;101788.13;;;16.12;100.00
43125;BME280;49182;50.788;7.318;2022-10-18T01:14:16;101778.63;;;16.09;100.00
43125;BME280;49182;50.788;7.318;2022-10-18T01:16:52;101780.44;;;16.09;100.00
43125;BME280;49182;50.788;7.318;2022-10-18T01:19:58;101772.88;;;16.04;100.00
43125;BME280;49182;50.788;7.318;2022-10-18T01:22:31;101777.22;;;16.05;100.00
43125;BME280;49182;50.788;7.318;2022-10-18T01:25:10;101774.72;;;16.04;100.00
43125;BME280;49182;50.788;7.318;2022-10-18T01:27:49;101772.88;;;16.04;100.00
43125;BME280;49182;50.788;7.318;2022-10-18T01:30:45;101773.16;;;16.01;100.00
43125;BME280;49182;50.788;7.318;2022-10-18T01:33:21;101780.16;;;16.02;100.00
43125;BME280;49182;50.788;7.318;2022-10-18T01:35:53;101777.50;;;16.02;100.00
43125;BME280;49182;50.788;7.318;2022-10-18T01:38:22;101781.84;;;16.03;100.00
43125;BME280;49182;50.788;7.318;2022-10-18T01:40:51;101770.22;;;16.04;100.00
43125;BME280;49182;50.788;7.318;2022-10-18T01:43:19;101774.72;;;16.04;100.00
43125;BME280;49182;50.788;7.318;2022-10-18T01:45:48;101771.47;;;16.00;100.00
43125;BME280;49182;50.788;7.318;2022-10-18T01:48:15;101774.72;;;16.04;100.00
43125;BME280;49182;50.788;7.318;2022-10-18T01:50:42;101768.13;;;15.98;100.00
43125;BME280;49182;50.788;7.318;2022-10-18T01:53:23;101774.72;;;16.04;100.00
43125;BME280;49182;50.788;7.318;2022-10-18T01:55:53;101775.81;;;16.01;100.00
43125;BME280;49182;50.788;7.318;2022-10-18T01:58:27;101763.75;;;16.07;100.00
43125;BME280;49182;50.788;7.318;2022-10-18T02:01:02;101776.09;;;16.08;100.00
43125;BME280;49182;50.788;7.318;2022-10-18T02:03:33;101761.09;;;16.07;100.00
43125;BME280;49182;50.788;7.318;2022-10-18T02:06:06;101762.22;;;16.04;100.00
43125;BME280;49182;50.788;7.318;2022-10-18T02:08:37;101741.88;;;15.94;100.00
43125;BME280;49182;50.788;7.318;2022-10-18T02:11:10;101758.72;;;16.04;100.00
43125;BME280;49182;50.788;7.318;2022-10-18T02:13:41;101753.41;;;16.04;100.00
43125;BME280;49182;50.788;7.318;2022-10-18T02:16:12;101748.47;;;15.99;100.00
43125;BME280;49182;50.788;7.318;2022-10-18T02:18:41;101744.28;;;15.97;100.00
43125;BME280;49182;50.788;7.318;2022-10-18T02:21:13;101749.75;;;15.95;100.00
43125;BME280;49182;50.788;7.318;2022-10-18T02:23:42;101747.91;;;15.96;100.00
43125;BME280;49182;50.788;7.318;2022-10-18T02:26:10;101742.59;;;15.86;100.00
43125;BME280;49182;50.788;7.318;2022-10-18T02:28:37;101751.69;;;15.93;100.00
43125;BME280;49182;50.788;7.318;2022-10-18T02:31:09;101762.50;;;15.92;100.00
43125;BME280;49182;50.788;7.318;2022-10-18T02:33:44;101752.53;;;15.94;100.00
43125;BME280;49182;50.788;7.318;2022-10-18T02:36:21;101750.72;;;15.94;100.00
43125;BME280;49182;50.788;7.318;2022-10-18T02:38:53;101761.38;;;15.94;100.00
43125;BME280;49182;50.788;7.318;2022-10-18T02:41:22;101751.69;;;15.93;100.00
43125;BME280;49182;50.788;7.318;2022-10-18T02:43:49;101762.22;;;15.95;100.00
43125;BME280;49182;50.788;7.318;2022-10-18T02:46:16;101770.06;;;15.96;100.00
43125;BME280;49182;50.788;7.318;2022-10-18T02:48:44;101758.56;;;15.96;100.00
43125;BME280;49182;50.788;7.318;2022-10-18T02:51:11;101766.28;;;15.99;100.00
43125;BME280;49182;50.788;7.318;2022-10-18T02:53:37;101769.09;;;15.97;100.00
43125;BME280;49182;50.788;7.318;2022-10-18T02:56:04;101759.28;;;15.98;100.00
43125;BME280;49182;50.788;7.318;2022-10-18T02:58:31;101763.34;;;15.92;100.00
43125;BME280;49182;50.788;7.318;2022-10-18T03:00:57;101765.31;;;15.90;100.00
43125;BME280;49182;50.788;7.318;2022-10-18T03:03:24;101764.91;;;15.85;100.00
43125;BME280;49182;50.788;7.318;2022-10-18T03:05:52;101764.59;;;15.88;100.00
43125;BME280;49182;50.788;7.318;2022-10-18T03:08:18;101747.09;;;15.76;100.00
43125;BME280;49182;50.788;7.318;2022-10-18T03:10:45;101769.66;;;15.91;100.00
43125;BME280;49182;50.788;7.318;2022-10-18T03:13:12;101763.63;;;15.89;100.00
43125;BME280;49182;50.788;7.318;2022-10-18T03:15:39;101772.88;;;15.95;100.00
43125;BME280;49182;50.788;7.318;2022-10-18T03:18:05;101772.59;;;15.98;100.00
43125;BME280;49182;50.788;7.318;2022-10-18T03:20:32;101768.69;;;15.92;100.00
43125;BME280;49182;50.788;7.318;2022-10-18T03:23:00;101785.22;;;15.96;100.00
43125;BME280;49182;50.788;7.318;2022-10-18T03:25:27;101786.63;;;15.90;100.00
43125;BME280;49182;50.788;7.318;2022-10-18T03:27:53;101783.38;;;15.87;100.00
43125;BME280;49182;50.788;7.318;2022-10-18T03:30:20;101782.13;;;15.91;100.00
43125;BME280;49182;50.788;7.318;2022-10-18T03:32:46;101788.84;;;15.95;100.00
43125;BME280;49182;50.788;7.318;2022-10-18T03:35:13;101781.84;;;15.94;100.00
43125;BME280;49182;50.788;7.318;2022-10-18T03:37:40;101789.56;;;15.97;100.00
43125;BME280;49182;50.788;7.318;2022-10-18T03:40:08;101788.59;;;15.98;100.00
43125;BME280;49182;50.788;7.318;2022-10-18T03:42:35;101794.34;;;16.03;100.00
43125;BME280;49182;50.788;7.318;2022-10-18T03:45:02;101783.53;;;16.04;100.00
43125;BME280;49182;50.788;7.318;2022-10-18T03:47:29;101790.41;;;16.07;100.00
43125;BME280;49182;50.788;7.318;2022-10-18T03:49:56;101798.38;;;16.07;100.00
43125;BME280;49182;50.788;7.318;2022-10-18T03:52:23;101799.09;;;16.09;100.00
43125;BME280;49182;50.788;7.318;2022-10-18T03:54:49;101792.78;;;16.10;100.00
43125;BME280;49182;50.788;7.318;2022-10-18T03:57:17;101799.78;;;16.11;100.00
43125;BME280;49182;50.788;7.318;2022-10-18T03:59:44;101777.63;;;16.01;100.00
43125;BME280;49182;50.788;7.318;2022-10-18T04:02:10;101787.47;;;16.10;100.00
43125;BME280;49182;50.788;7.318;2022-10-18T04:04:37;101790.97;;;16.10;100.00
43125;BME280;49182;50.788;7.318;2022-10-18T04:07:04;101792.94;;;16.08;100.00
43125;BME280;49182;50.788;7.318;2022-10-18T04:09:30;101784.94;;;16.08;100.00
43125;BME280;49182;50.788;7.318;2022-10-18T04:11:57;101790.97;;;16.10;100.00
43125;BME280;49182;50.788;7.318;2022-10-18T04:14:26;101761.38;;;16.04;100.00
43125;BME280;49182;50.788;7.318;2022-10-18T04:16:52;101778.47;;;16.11;100.00
43125;BME280;49182;50.788;7.318;2022-10-18T04:19:19;101772.19;;;16.02;100.00
43125;BME280;49182;50.788;7.318;2022-10-18T04:21:45;101774.41;;;16.07;100.00
43125;BME280;49182;50.788;7.318;2022-10-18T04:24:12;101776.22;;;16.06;100.00
43125;BME280;49182;50.788;7.318;2022-10-18T04:26:38;101769.09;;;16.07;100.00
43125;BME280;49182;50.788;7.318;2022-10-18T04:29:05;101772.03;;;16.04;100.00
43125;BME280;49182;50.788;7.318;2022-10-18T04:31:33;101767.69;;;16.03;100.00
43125;BME280;49182;50.788;7.318;2022-10-18T04:34:00;101776.66;;;16.02;100.00
43125;BME280;49182;50.788;7.318;2022-10-18T04:36:26;101777.78;;;15.99;100.00
43125;BME280;49182;50.788;7.318;2022-10-18T04:38:53;101779.75;;;15.97;100.00
43125;BME280;49182;50.788;7.318;2022-10-18T04:41:19;101784.25;;;15.97;100.00
43125;BME280;49182;50.788;7.318;2022-10-18T04:43:46;101784.25;;;15.97;100.00
43125;BME280;49182;50.788;7.318;2022-10-18T04:46:12;101784.38;;;15.95;100.00
43125;BME280;49182;50.788;7.318;2022-10-18T04:48:40;101773.88;;;15.84;100.00
43125;BME280;49182;50.788;7.318;2022-10-18T04:51:07;101787.47;;;15.91;100.00
43125;BME280;49182;50.788;7.318;2022-10-18T04:53:34;101785.66;;;15.91;100.00
43125;BME280;49182;50.788;7.318;2022-10-18T04:56:00;101779.47;;;15.91;100.00
43125;BME280;49182;50.788;7.318;2022-10-18T04:58:27;101670.94;;;15.16;100.00
43125;BME280;49182;50.788;7.318;2022-10-18T05:00:53;101787.47;;;15.91;100.00
43125;BME280;49182;50.788;7.318;2022-10-18T05:03:20;101775.25;;;15.88;100.00
43125;BME280;49182;50.788;7.318;2022-10-18T05:05:48;101772.03;;;15.85;100.00
43125;BME280;49182;50.788;7.318;2022-10-18T05:08:28;101783.13;;;15.90;100.00
43125;BME280;49182;50.788;7.318;2022-10-18T05:10:54;101788.31;;;15.91;100.00
43125;BME280;49182;50.788;7.318;2022-10-18T05:13:21;101795.44;;;15.91;100.00
43125;BME280;49182;50.788;7.318;2022-10-18T05:15:47;101787.47;;;15.91;100.00
43125;BME280;49182;50.788;7.318;2022-10-18T05:18:14;101790.97;;;15.91;100.00
43125;BME280;49182;50.788;7.318;2022-10-18T05:20:41;101794.75;;;15.89;100.00
43125;BME280;49182;50.788;7.318;2022-10-18T05:23:09;101783.81;;;15.82;100.00
43125;BME280;49182;50.788;7.318;2022-10-18T05:25:37;101791.09;;;15.90;100.00
43125;BME280;49182;50.788;7.318;2022-10-18T05:28:03;101785.34;;;15.85;100.00
43125;BME280;49182;50.788;7.318;2022-10-18T05:30:41;101786.34;;;15.84;100.00
43125;BME280;49182;50.788;7.318;2022-10-18T05:33:08;101788.72;;;15.87;100.00
43125;BME280;49182;50.788;7.318;2022-10-18T05:35:35;101788.44;;;15.90;100.00
43125;BME280;49182;50.788;7.318;2022-10-18T05:38:02;101804.41;;;15.90;100.00
43125;BME280;49182;50.788;7.318;2022-10-18T05:40:31;101804.28;;;15.91;100.00
43125;BME280;49182;50.788;7.318;2022-10-18T05:42:57;101807.81;;;15.92;100.00
43125;BME280;49182;50.788;7.318;2022-10-18T05:45:24;101804.97;;;15.93;100.00
43125;BME280;49182;50.788;7.318;2022-10-18T05:47:50;101744.41;;;15.57;100.00
43125;BME280;49182;50.788;7.318;2022-10-18T05:50:17;101806.66;;;15.94;100.00
43125;BME280;49182;50.788;7.318;2022-10-18T05:52:44;101801.34;;;15.94;100.00
43125;BME280;49182;50.788;7.318;2022-10-18T05:55:10;101797.81;;;15.94;100.00
43125;BME280;49182;50.788;7.318;2022-10-18T05:57:38;101805.13;;;15.92;100.00
43125;BME280;49182;50.788;7.318;2022-10-18T06:00:05;101802.72;;;15.89;100.00
43125;BME280;49182;50.788;7.318;2022-10-18T06:02:37;101811.56;;;15.89;100.00
43125;BME280;49182;50.788;7.318;2022-10-18T06:05:04;101811.16;;;15.84;100.00
43125;BME280;49182;50.788;7.318;2022-10-18T06:07:30;101813.09;;;15.82;100.00
43125;BME280;49182;50.788;7.318;2022-10-18T06:09:57;101825.56;;;15.82;100.00
43125;BME280;49182;50.788;7.318;2022-10-18T06:12:24;101831.88;;;15.81;100.00
43125;BME280;49182;50.788;7.318;2022-10-18T06:14:52;101830.06;;;15.81;100.00
43125;BME280;49182;50.788;7.318;2022-10-18T06:17:18;101831.03;;;15.80;100.00
43125;BME280;49182;50.788;7.318;2022-10-18T06:19:45;101831.88;;;15.81;100.00
43125;BME280;49182;50.788;7.318;2022-10-18T06:22:11;101830.91;;;15.82;100.00
43125;BME280;49182;50.788;7.318;2022-10-18T06:24:38;101836.09;;;15.83;100.00
43125;BME280;49182;50.788;7.318;2022-10-18T06:27:04;101832.47;;;15.84;100.00
43125;BME280;49182;50.788;7.318;2022-10-18T06:29:37;101831.75;;;15.82;100.00
43125;BME280;49182;50.788;7.318;2022-10-18T06:32:06;101832.88;;;15.80;100.00
43125;BME280;49182;50.788;7.318;2022-10-18T06:34:33;101834.69;;;15.79;100.00
43125;BME280;49182;50.788;7.318;2022-10-18T06:36:59;101819.28;;;15.73;100.00
43125;BME280;49182;50.788;7.318;2022-10-18T06:39:26;101821.50;;;15.77;100.00
43125;BME280;49182;50.788;7.318;2022-10-18T06:41:53;101806.91;;;15.62;100.00
43125;BME280;49182;50.788;7.318;2022-10-18T06:44:20;101824.03;;;15.79;100.00
43125;BME280;49182;50.788;7.318;2022-10-18T06:46:47;101822.50;;;15.76;100.00
43125;BME280;49182;50.788;7.318;2022-10-18T06:49:15;101833.84;;;15.78;100.00
43125;BME280;49182;50.788;7.318;2022-10-18T06:51:44;101835.69;;;15.78;100.00
43125;BME280;49182;50.788;7.318;2022-10-18T06:54:11;101838.34;;;15.78;100.00
43125;BME280;49182;50.788;7.318;2022-10-18T06:56:44;101846.19;;;15.80;100.00
43125;BME280;49182;50.788;7.318;2022-10-18T06:59:11;101845.19;;;15.81;100.00
43125;BME280;49182;50.788;7.318;2022-10-18T07:01:37;101841.56;;;15.82;100.00
43125;BME280;49182;50.788;7.318;2022-10-18T07:04:04;101852.06;;;15.83;100.00
43125;BME280;49182;50.788;7.318;2022-10-18T07:06:32;101848.44;;;15.84;100.00
43125;BME280;49182;50.788;7.318;2022-10-18T07:08:58;101862.44;;;15.86;100.00
43125;BME280;49182;50.788;7.318;2022-10-18T07:11:26;101862.31;;;15.88;100.00
43125;BME280;49182;50.788;7.318;2022-10-18T07:13:54;101864.00;;;15.89;100.00
43125;BME280;49182;50.788;7.318;2022-10-18T07:16:23;101864.84;;;15.89;100.00
43125;BME280;49182;50.788;7.318;2022-10-18T07:18:50;101871.84;;;15.90;100.00
43125;BME280;49182;50.788;7.318;2022-10-18T07:21:18;101871.44;;;15.95;100.00
43125;BME280;49182;50.788;7.318;2022-10-18T07:23:47;101871.19;;;15.98;100.00
43125;BME280;49182;50.788;7.318;2022-10-18T07:26:16;101868.22;;;16.01;100.00
43125;BME280;49182;50.788;7.318;2022-10-18T07:28:45;101862.75;;;16.02;100.00
43125;BME280;49182;50.788;7.318;2022-10-18T07:31:12;101873.13;;;16.05;100.00
43125;BME280;49182;50.788;7.318;2022-10-18T07:33:39;101876.50;;;16.07;100.00
43125;BME280;49182;50.788;7.318;2022-10-18T07:36:07;101877.06;;;16.11;100.00
43125;BME280;49182;50.788;7.318;2022-10-18T07:38:34;101878.47;;;16.15;100.00
43125;BME280;49182;50.788;7.318;2022-10-18T07:41:04;101869.94;;;16.21;100.00
43125;BME280;49182;50.788;7.318;2022-10-18T07:43:31;101871.63;;;16.22;100.00
43125;BME280;49182;50.788;7.318;2022-10-18T07:46:00;101876.22;;;16.30;100.00
43125;BME280;49182;50.788;7.318;2022-10-18T07:48:27;101890.00;;;16.35;100.00
43125;BME280;49182;50.788;7.318;2022-10-18T07:50:53;101895.88;;;16.38;100.00
43125;BME280;49182;50.788;7.318;2022-10-18T07:53:23;101906.28;;;16.41;100.00
43125;BME280;49182;50.788;7.318;2022-10-18T07:55:49;101907.78;;;16.44;100.00
43125;BME280;49182;50.788;7.318;2022-10-18T07:58:17;101909.06;;;16.49;100.00
43125;BME280;49182;50.788;7.318;2022-10-18T08:00:44;101915.81;;;16.53;100.00
43125;BME280;49182;50.788;7.318;2022-10-18T08:03:10;101909.94;;;16.60;100.00
43125;BME280;49182;50.788;7.318;2022-10-18T08:05:37;101916.38;;;16.67;100.00
43125;BME280;49182;50.788;7.318;2022-10-18T08:08:03;101913.13;;;16.73;100.00
43125;BME280;49182;50.788;7.318;2022-10-18T08:10:34;101918.91;;;16.78;100.00
43125;BME280;49182;50.788;7.318;2022-10-18T08:13:01;101928.03;;;16.85;100.00
43125;BME280;49182;50.788;7.318;2022-10-18T08:15:28;101916.50;;;16.84;100.00
43125;BME280;49182;50.788;7.318;2022-10-18T08:17:55;101924.88;;;16.99;100.00
43125;BME280;49182;50.788;7.318;2022-10-18T08:20:21;101925.16;;;17.06;100.00
43125;BME280;49182;50.788;7.318;2022-10-18T08:22:57;101914.34;;;17.07;100.00
43125;BME280;49182;50.788;7.318;2022-10-18T08:25:26;101920.22;;;17.20;100.00
43125;BME280;49182;50.788;7.318;2022-10-18T08:27:53;101917.22;;;17.23;100.00
43125;BME280;49182;50.788;7.318;2022-10-18T08:30:19;101925.22;;;17.33;100.00
43125;BME280;49182;50.788;7.318;2022-10-18T08:32:47;101924.47;;;17.40;100.00
43125;BME280;49182;50.788;7.318;2022-10-18T08:35:14;101923.75;;;17.48;100.00
43125;BME280;49182;50.788;7.318;2022-10-18T08:37:40;101923.88;;;17.56;100.00
43125;BME280;49182;50.788;7.318;2022-10-18T08:40:09;101922.56;;;17.70;100.00
43125;BME280;49182;50.788;7.318;2022-10-18T08:42:56;101935.16;;;17.77;100.00
43125;BME280;49182;50.788;7.318;2022-10-18T08:45:25;101939.50;;;17.88;100.00
43125;BME280;49182;50.788;7.318;2022-10-18T08:48:16;101933.94;;;17.99;100.00
43125;BME280;49182;50.788;7.318;2022-10-18T08:50:45;101931.19;;;18.09;100.00
43125;BME280;49182;50.788;7.318;2022-10-18T08:53:15;101932.88;;;18.10;98.86
43125;BME280;49182;50.788;7.318;2022-10-18T08:55:47;101935.25;;;18.13;98.71
43125;BME280;49182;50.788;7.318;2022-10-18T08:58:18;101949.53;;;18.22;97.34
43125;BME280;49182;50.788;7.318;2022-10-18T09:00:51;101949.09;;;18.26;96.99
43125;BME280;49182;50.788;7.318;2022-10-18T09:03:32;101945.50;;;18.17;94.86
43125;BME280;49182;50.788;7.318;2022-10-18T09:06:11;101933.25;;;18.15;93.95
43125;BME280;49182;50.788;7.318;2022-10-18T09:08:55;101949.09;;;18.26;94.51
43125;BME280;49182;50.788;7.318;2022-10-18T09:11:40;101966.19;;;18.33;93.97
43125;BME280;49182;50.788;7.318;2022-10-18T09:14:52;101962.75;;;18.23;91.69
43125;BME280;49182;50.788;7.318;2022-10-18T09:17:28;101966.38;;;18.32;92.40
43125;BME280;49182;50.788;7.318;2022-10-18T09:20:07;101971.09;;;18.38;90.40
43125;BME280;49182;50.788;7.318;2022-10-18T09:22:47;101968.56;;;18.36;90.12
43125;BME280;49182;50.788;7.318;2022-10-18T09:25:18;101971.09;;;18.38;91.17
43125;BME280;49182;50.788;7.318;2022-10-18T09:27:51;101977.13;;;18.40;91.94
43125;BME280;49182;50.788;7.318;2022-10-18T09:30:31;101962.25;;;18.37;91.46
43125;BME280;49182;50.788;7.318;2022-10-18T09:33:13;101977.06;;;18.49;91.70
43125;BME280;49182;50.788;7.318;2022-10-18T09:35:49;101971.25;;;18.54;91.97
43125;BME280;49182;50.788;7.318;2022-10-18T09:38:23;101981.38;;;18.60;92.66
43125;BME280;49182;50.788;7.318;2022-10-18T09:40:55;101981.59;;;18.67;92.63
43125;BME280;49182;50.788;7.318;2022-10-18T09:43:25;101968.59;;;18.72;92.63
43125;BME280;49182;50.788;7.318;2022-10-18T09:45:59;101983.38;;;18.76;91.96
43125;BME280;49182;50.788;7.318;2022-10-18T09:48:27;101968.56;;;18.64;89.55
43125;BME280;49182;50.788;7.318;2022-10-18T09:51:00;101978.41;;;18.63;89.62
43125;BME280;49182;50.788;7.318;2022-10-18T09:53:33;101977.94;;;18.68;89.77
43125;BME280;49182;50.788;7.318;2022-10-18T09:56:05;101984.59;;;18.64;89.44
43125;BME280;49182;50.788;7.318;2022-10-18T09:58:41;101984.13;;;18.68;89.94
43125;BME280;49182;50.788;7.318;2022-10-18T10:01:10;101961.50;;;18.63;90.26
43125;BME280;49182;50.788;7.318;2022-10-18T10:03:38;101990.72;;;18.74;90.18
43125;BME280;49182;50.788;7.318;2022-10-18T10:06:23;101988.41;;;18.79;90.02
43125;BME280;49182;50.788;7.318;2022-10-18T10:08:54;101988.97;;;18.82;90.15
43125;BME280;49182;50.788;7.318;2022-10-18T10:11:27;101993.28;;;18.83;89.42
43125;BME280;49182;50.788;7.318;2022-10-18T10:13:56;101987.56;;;18.78;89.88
43125;BME280;49182;50.788;7.318;2022-10-18T10:16:24;101983.66;;;18.90;90.14
43125;BME280;49182;50.788;7.318;2022-10-18T10:18:52;101990.91;;;18.98;89.89
43125;BME280;49182;50.788;7.318;2022-10-18T10:21:20;101973.72;;;18.83;88.19
43125;BME280;49182;50.788;7.318;2022-10-18T10:23:52;101997.63;;;19.02;87.76
43125;BME280;49182;50.788;7.318;2022-10-18T10:26:20;101996.16;;;18.82;86.89
43125;BME280;49182;50.788;7.318;2022-10-18T10:28:47;101998.56;;;18.93;87.99
43125;BME280;49182;50.788;7.318;2022-10-18T10:31:26;102008.81;;;18.97;87.52
43125;BME280;49182;50.788;7.318;2022-10-18T10:33:59;101991.53;;;18.92;87.93
43125;BME280;49182;50.788;7.318;2022-10-18T10:36:28;102009.03;;;19.04;87.22
43125;BME280;49182;50.788;7.318;2022-10-18T10:39:03;102009.72;;;19.06;87.82
43125;BME280;49182;50.788;7.318;2022-10-18T10:41:30;101994.09;;;19.02;88.26
43125;BME280;49182;50.788;7.318;2022-10-18T10:44:04;101990.59;;;19.01;87.93
43125;BME280;49182;50.788;7.318;2022-10-18T10:46:39;102016.06;;;19.05;88.43
43125;BME280;49182;50.788;7.318;2022-10-18T10:49:15;102006.88;;;19.08;88.38
43125;BME280;49182;50.788;7.318;2022-10-18T10:52:05;101932.84;;;18.55;87.40
43125;BME280;49182;50.788;7.318;2022-10-18T10:54:52;102002.84;;;18.86;87.43
43125;BME280;49182;50.788;7.318;2022-10-18T10:57:37;102014.41;;;18.86;87.59
43125;BME280;49182;50.788;7.318;2022-10-18T11:00:04;102007.28;;;18.77;87.49
43125;BME280;49182;50.788;7.318;2022-10-18T11:02:32;102014.09;;;18.72;88.05
43125;BME280;49182;50.788;7.318;2022-10-18T11:05:15;102020.97;;;18.56;87.57
43125;BME280;49182;50.788;7.318;2022-10-18T11:07:44;102006.78;;;18.46;88.71
43125;BME280;49182;50.788;7.318;2022-10-18T11:10:14;102025.75;;;18.53;88.61
43125;BME280;49182;50.788;7.318;2022-10-18T11:12:42;102013.53;;;18.50;89.21
43125;BME280;49182;50.788;7.318;2022-10-18T11:15:18;102017.72;;;18.53;89.26
43125;BME280;49182;50.788;7.318;2022-10-18T11:17:50;102013.47;;;18.60;89.50
43125;BME280;49182;50.788;7.318;2022-10-18T11:20:25;102016.53;;;18.65;88.50
43125;BME280;49182;50.788;7.318;2022-10-18T11:23:00;102014.09;;;18.72;88.95
43125;BME280;49182;50.788;7.318;2022-10-18T11:25:41;101994.06;;;18.58;88.37
43125;BME280;49182;50.788;7.318;2022-10-18T11:28:15;102003.94;;;18.75;88.93
43125;BME280;49182;50.788;7.318;2022-10-18T11:30:52;102008.28;;;18.76;86.71
43125;BME280;49182;50.788;7.318;2022-10-18T11:33:30;102008.97;;;18.78;87.61
43125;BME280;49182;50.788;7.318;2022-10-18T11:36:26;102005.06;;;18.90;87.92
43125;BME280;49182;50.788;7.318;2022-10-18T11:39:04;101992.44;;;19.01;87.56
43125;BME280;49182;50.788;7.318;2022-10-18T11:41:37;102006.56;;;19.11;86.94
43125;BME280;49182;50.788;7.318;2022-10-18T11:44:11;102001.22;;;19.11;87.53
43125;BME280;49182;50.788;7.318;2022-10-18T11:46:50;101995.88;;;19.11;86.63
43125;BME280;49182;50.788;7.318;2022-10-18T11:49:41;101989.06;;;18.98;85.00
43125;BME280;49182;50.788;7.318;2022-10-18T11:52:16;101992.81;;;19.06;86.44
43125;BME280;49182;50.788;7.318;2022-10-18T11:55:01;101998.63;;;19.19;86.00
43125;BME280;49182;50.788;7.318;2022-10-18T11:57:39;101994.69;;;19.31;85.62
43125;BME280;49182;50.788;7.318;2022-10-18T12:00:19;101994.69;;;19.31;84.96
43125;BME280;49182;50.788;7.318;2022-10-18T12:03:02;101994.06;;;19.37;85.47
43125;BME280;49182;50.788;7.318;2022-10-18T12:05:37;101992.69;;;19.59;85.53
43125;BME280;49182;50.788;7.318;2022-10-18T12:08:07;101987.75;;;19.72;85.89
43125;BME280;49182;50.788;7.318;2022-10-18T12:10:40;101967.84;;;19.83;85.67
43125;BME280;49182;50.788;7.318;2022-10-18T12:13:32;101982.53;;;20.12;84.32
43125;BME280;49182;50.788;7.318;2022-10-18T12:16:03;101978.91;;;20.30;83.12
43125;BME280;49182;50.788;7.318;2022-10-18T12:18:30;101954.38;;;20.16;82.09
43125;BME280;49182;50.788;7.318;2022-10-18T12:20:58;101978.59;;;20.33;81.75
43125;BME280;49182;50.788;7.318;2022-10-18T12:23:34;101975.53;;;20.28;77.47
43125;BME280;49182;50.788;7.318;2022-10-18T12:26:06;101983.75;;;20.18;79.57
43125;BME280;49182;50.788;7.318;2022-10-18T12:28:37;101985.91;;;20.23;80.46
43125;BME280;49182;50.788;7.318;2022-10-18T12:31:18;101976.00;;;20.15;80.05
43125;BME280;49182;50.788;7.318;2022-10-18T12:33:48;101974.28;;;19.98;79.87
43125;BME280;49182;50.788;7.318;2022-10-18T12:36:28;101984.31;;;19.96;79.75
43125;BME280;49182;50.788;7.318;2022-10-18T12:39:04;101984.28;;;19.88;79.62
43125;BME280;49182;50.788;7.318;2022-10-18T12:41:34;101975.97;;;19.65;79.98
43125;BME280;49182;50.788;7.318;2022-10-18T12:44:04;101982.44;;;19.28;79.36
43125;BME280;49182;50.788;7.318;2022-10-18T12:46:45;101982.06;;;19.23;79.88
43125;BME280;49182;50.788;7.318;2022-10-18T12:49:16;101979.06;;;19.01;80.34
43125;BME280;49182;50.788;7.318;2022-10-18T12:51:51;101973.91;;;19.07;80.58
43125;BME280;49182;50.788;7.318;2022-10-18T12:54:21;101970.56;;;19.05;81.43
43125;BME280;49182;50.788;7.318;2022-10-18T12:56:51;101969.59;;;19.14;82.09
43125;BME280;49182;50.788;7.318;2022-10-18T13:02:18;101973.00;;;19.76;81.57
43125;BME280;49182;50.788;7.318;2022-10-18T13:04:46;101973.63;;;20.04;81.22